sensor_id;sensor_type;location;lat;lon;timestamp;pressure;altitude;pressure_sealevel;temperature
41593;BMP180;28026;48.562;14.440;2023-02-28T00:01:35;94268.00;;;4.70
41593;BMP180;28026;48.562;14.440;2023-02-28T00:04:06;94271.00;;;4.70
41593;BMP180;28026;48.562;14.440;2023-02-28T00:06:39;94271.00;;;4.70
41593;BMP180;28026;48.562;14.440;2023-02-28T00:09:10;94268.00;;;4.80
41593;BMP180;28026;48.562;14.440;2023-02-28T00:11:41;94263.00;;;4.80
41593;BMP180;28026;48.562;14.440;2023-02-28T00:14:12;94267.00;;;4.80
41593;BMP180;28026;48.562;14.440;2023-02-28T00:16:43;94263.00;;;4.70
41593;BMP180;28026;48.562;14.440;2023-02-28T00:19:13;94262.00;;;4.70
41593;BMP180;28026;48.562;14.440;2023-02-28T00:21:44;94262.00;;;4.70
41593;BMP180;28026;48.562;14.440;2023-02-28T00:24:15;94258.00;;;4.70
41593;BMP180;28026;48.562;14.440;2023-02-28T00:26:46;94257.00;;;4.70
41593;BMP180;28026;48.562;14.440;2023-02-28T00:29:17;94256.00;;;4.70
41593;BMP180;28026;48.562;14.440;2023-02-28T00:31:48;94253.00;;;4.70
41593;BMP180;28026;48.562;14.440;2023-02-28T00:34:18;94252.00;;;4.70
41593;BMP180;28026;48.562;14.440;2023-02-28T00:36:49;94259.00;;;4.70
41593;BMP180;28026;48.562;14.440;2023-02-28T00:39:21;94256.00;;;4.70
41593;BMP180;28026;48.562;14.440;2023-02-28T00:41:52;94247.00;;;4.70
41593;BMP180;28026;48.562;14.440;2023-02-28T00:44:23;94247.00;;;4.70
41593;BMP180;28026;48.562;14.440;2023-02-28T00:46:54;94246.00;;;4.70
41593;BMP180;28026;48.562;14.440;2023-02-28T00:49:27;94254.00;;;4.60
41593;BMP180;28026;48.562;14.440;2023-02-28T00:51:58;94245.00;;;4.60
41593;BMP180;28026;48.562;14.440;2023-02-28T00:54:29;94249.00;;;4.60
41593;BMP180;28026;48.562;14.440;2023-02-28T00:57:00;94234.00;;;4.60
41593;BMP180;28026;48.562;14.440;2023-02-28T00:59:31;94242.00;;;4.60
41593;BMP180;28026;48.562;14.440;2023-02-28T01:02:03;94234.00;;;4.60
41593;BMP180;28026;48.562;14.440;2023-02-28T01:04:35;94237.00;;;4.60
41593;BMP180;28026;48.562;14.440;2023-02-28T01:07:06;94239.00;;;4.60
41593;BMP180;28026;48.562;14.440;2023-02-28T01:09:37;94232.00;;;4.60
41593;BMP180;28026;48.562;14.440;2023-02-28T01:12:08;94234.00;;;4.50
41593;BMP180;28026;48.562;14.440;2023-02-28T01:14:39;94234.00;;;4.50
41593;BMP180;28026;48.562;14.440;2023-02-28T01:17:10;94224.00;;;4.40
41593;BMP180;28026;48.562;14.440;2023-02-28T01:19:41;94217.00;;;4.40
41593;BMP180;28026;48.562;14.440;2023-02-28T01:22:12;94227.00;;;4.30
41593;BMP180;28026;48.562;14.440;2023-02-28T01:24:43;94227.00;;;4.30
41593;BMP180;28026;48.562;14.440;2023-02-28T01:27:14;94226.00;;;4.30
41593;BMP180;28026;48.562;14.440;2023-02-28T01:29:45;94236.00;;;4.30
41593;BMP180;28026;48.562;14.440;2023-02-28T01:32:16;94228.00;;;4.30
41593;BMP180;28026;48.562;14.440;2023-02-28T01:34:46;94227.00;;;4.30
41593;BMP180;28026;48.562;14.440;2023-02-28T01:37:17;94229.00;;;4.30
41593;BMP180;28026;48.562;14.440;2023-02-28T01:39:48;94226.00;;;4.30
41593;BMP180;28026;48.562;14.440;2023-02-28T01:42:19;94225.00;;;4.20
41593;BMP180;28026;48.562;14.440;2023-02-28T01:48:05;94223.00;;;4.20
41593;BMP180;28026;48.562;14.440;2023-02-28T01:50:43;94217.00;;;4.10
41593;BMP180;28026;48.562;14.440;2023-02-28T01:53:23;94214.00;;;4.10
41593;BMP180;28026;48.562;14.440;2023-02-28T01:56:06;94202.00;;;4.10
41593;BMP180;28026;48.562;14.440;2023-02-28T01:58:39;94196.00;;;4.00
41593;BMP180;28026;48.562;14.440;2023-02-28T02:01:10;94188.00;;;4.00
41593;BMP180;28026;48.562;14.440;2023-02-28T02:03:55;94200.00;;;3.90
41593;BMP180;28026;48.562;14.440;2023-02-28T02:06:42;94187.00;;;3.80
41593;BMP180;28026;48.562;14.440;2023-02-28T02:09:16;94187.00;;;3.80
41593;BMP180;28026;48.562;14.440;2023-02-28T02:11:47;94194.00;;;3.80
41593;BMP180;28026;48.562;14.440;2023-02-28T02:17:16;94190.00;;;3.70
41593;BMP180;28026;48.562;14.440;2023-02-28T02:24:07;94190.00;;;3.60
41593;BMP180;28026;48.562;14.440;2023-02-28T02:30:44;94194.00;;;3.50
41593;BMP180;28026;48.562;14.440;2023-02-28T02:40:21;94181.00;;;3.50
41593;BMP180;28026;48.562;14.440;2023-02-28T02:43:50;94191.00;;;3.40
41593;BMP180;28026;48.562;14.440;2023-02-28T02:46:34;94186.00;;;3.40
41593;BMP180;28026;48.562;14.440;2023-02-28T02:49:19;94178.00;;;3.40
41593;BMP180;28026;48.562;14.440;2023-02-28T02:51:58;94171.00;;;3.40
41593;BMP180;28026;48.562;14.440;2023-02-28T02:54:43;94171.00;;;3.40
41593;BMP180;28026;48.562;14.440;2023-02-28T03:00:23;94182.00;;;3.40
41593;BMP180;28026;48.562;14.440;2023-02-28T03:03:02;94182.00;;;3.40
41593;BMP180;28026;48.562;14.440;2023-02-28T03:05:46;94184.00;;;3.40
41593;BMP180;28026;48.562;14.440;2023-02-28T03:08:20;94185.00;;;3.40
41593;BMP180;28026;48.562;14.440;2023-02-28T03:10:58;94177.00;;;3.40
41593;BMP180;28026;48.562;14.440;2023-02-28T03:20:48;94180.00;;;3.30
41593;BMP180;28026;48.562;14.440;2023-02-28T03:23:58;94177.00;;;3.30
41593;BMP180;28026;48.562;14.440;2023-02-28T03:26:58;94180.00;;;3.30
41593;BMP180;28026;48.562;14.440;2023-02-28T03:30:00;94176.00;;;3.30
41593;BMP180;28026;48.562;14.440;2023-02-28T03:32:51;94165.00;;;3.30
41593;BMP180;28026;48.562;14.440;2023-02-28T03:35:40;94168.00;;;3.30
41593;BMP180;28026;48.562;14.440;2023-02-28T03:38:29;94165.00;;;3.20
41593;BMP180;28026;48.562;14.440;2023-02-28T03:41:16;94167.00;;;3.20
41593;BMP180;28026;48.562;14.440;2023-02-28T03:44:35;94177.00;;;3.20
41593;BMP180;28026;48.562;14.440;2023-02-28T03:50:05;94167.00;;;3.20
41593;BMP180;28026;48.562;14.440;2023-02-28T03:52:55;94171.00;;;3.20
41593;BMP180;28026;48.562;14.440;2023-02-28T03:55:45;94166.00;;;3.20
41593;BMP180;28026;48.562;14.440;2023-02-28T04:01:44;94172.00;;;3.10
41593;BMP180;28026;48.562;14.440;2023-02-28T04:04:18;94172.00;;;3.10
41593;BMP180;28026;48.562;14.440;2023-02-28T04:06:51;94167.00;;;3.00
41593;BMP180;28026;48.562;14.440;2023-02-28T04:09:23;94176.00;;;3.00
41593;BMP180;28026;48.562;14.440;2023-02-28T04:11:54;94173.00;;;3.00
41593;BMP180;28026;48.562;14.440;2023-02-28T04:14:28;94181.00;;;3.00
41593;BMP180;28026;48.562;14.440;2023-02-28T04:16:59;94167.00;;;2.90
41593;BMP180;28026;48.562;14.440;2023-02-28T04:19:30;94166.00;;;2.90
41593;BMP180;28026;48.562;14.440;2023-02-28T04:22:01;94176.00;;;2.90
41593;BMP180;28026;48.562;14.440;2023-02-28T04:24:31;94168.00;;;2.90
41593;BMP180;28026;48.562;14.440;2023-02-28T04:27:03;94164.00;;;2.90
41593;BMP180;28026;48.562;14.440;2023-02-28T04:29:33;94162.00;;;2.90
41593;BMP180;28026;48.562;14.440;2023-02-28T04:32:05;94162.00;;;2.90
41593;BMP180;28026;48.562;14.440;2023-02-28T04:34:36;94156.00;;;2.80
41593;BMP180;28026;48.562;14.440;2023-02-28T04:37:07;94149.00;;;2.80
41593;BMP180;28026;48.562;14.440;2023-02-28T04:39:38;94152.00;;;2.80
41593;BMP180;28026;48.562;14.440;2023-02-28T04:42:10;94145.00;;;2.70
41593;BMP180;28026;48.562;14.440;2023-02-28T04:44:42;94149.00;;;2.70
41593;BMP180;28026;48.562;14.440;2023-02-28T04:47:13;94153.00;;;2.70
41593;BMP180;28026;48.562;14.440;2023-02-28T04:49:44;94154.00;;;2.70
41593;BMP180;28026;48.562;14.440;2023-02-28T04:52:14;94152.00;;;2.70
41593;BMP180;28026;48.562;14.440;2023-02-28T04:54:45;94158.00;;;2.70
41593;BMP180;28026;48.562;14.440;2023-02-28T04:57:16;94151.00;;;2.70
41593;BMP180;28026;48.562;14.440;2023-02-28T04:59:47;94165.00;;;2.60
41593;BMP180;28026;48.562;14.440;2023-02-28T05:02:18;94164.00;;;2.60
41593;BMP180;28026;48.562;14.440;2023-02-28T05:04:50;94161.00;;;2.60
41593;BMP180;28026;48.562;14.440;2023-02-28T05:07:21;94164.00;;;2.60
41593;BMP180;28026;48.562;14.440;2023-02-28T05:09:52;94162.00;;;2.60
41593;BMP180;28026;48.562;14.440;2023-02-28T05:12:23;94166.00;;;2.60
41593;BMP180;28026;48.562;14.440;2023-02-28T05:14:54;94166.00;;;2.60
41593;BMP180;28026;48.562;14.440;2023-02-28T05:17:25;94172.00;;;2.60
41593;BMP180;28026;48.562;14.440;2023-02-28T05:19:56;94176.00;;;2.50
41593;BMP180;28026;48.562;14.440;2023-02-28T05:22:27;94166.00;;;2.50
41593;BMP180;28026;48.562;14.440;2023-02-28T05:24:58;94170.00;;;2.50
41593;BMP180;28026;48.562;14.440;2023-02-28T05:27:29;94177.00;;;2.50
41593;BMP180;28026;48.562;14.440;2023-02-28T05:30:00;94169.00;;;2.50
41593;BMP180;28026;48.562;14.440;2023-02-28T05:32:33;94169.00;;;2.50
41593;BMP180;28026;48.562;14.440;2023-02-28T05:35:05;94169.00;;;2.50
41593;BMP180;28026;48.562;14.440;2023-02-28T05:37:37;94172.00;;;2.50
41593;BMP180;28026;48.562;14.440;2023-02-28T05:40:10;94177.00;;;2.50
41593;BMP180;28026;48.562;14.440;2023-02-28T05:42:41;94170.00;;;2.50
41593;BMP180;28026;48.562;14.440;2023-02-28T05:45:12;94179.00;;;2.50
41593;BMP180;28026;48.562;14.440;2023-02-28T05:47:43;94187.00;;;2.50
41593;BMP180;28026;48.562;14.440;2023-02-28T05:50:15;94185.00;;;2.50
41593;BMP180;28026;48.562;14.440;2023-02-28T05:52:53;94181.00;;;2.50
41593;BMP180;28026;48.562;14.440;2023-02-28T05:55:24;94185.00;;;2.40
41593;BMP180;28026;48.562;14.440;2023-02-28T05:57:55;94183.00;;;2.40
41593;BMP180;28026;48.562;14.440;2023-02-28T06:00:26;94192.00;;;2.40
41593;BMP180;28026;48.562;14.440;2023-02-28T06:02:58;94190.00;;;2.40
41593;BMP180;28026;48.562;14.440;2023-02-28T06:05:31;94192.00;;;2.40
41593;BMP180;28026;48.562;14.440;2023-02-28T06:08:04;94196.00;;;2.40
41593;BMP180;28026;48.562;14.440;2023-02-28T06:10:37;94191.00;;;2.50
41593;BMP180;28026;48.562;14.440;2023-02-28T06:13:08;94196.00;;;2.50
41593;BMP180;28026;48.562;14.440;2023-02-28T06:15:39;94201.00;;;2.50
41593;BMP180;28026;48.562;14.440;2023-02-28T06:18:10;94197.00;;;2.50
41593;BMP180;28026;48.562;14.440;2023-02-28T06:20:41;94196.00;;;2.50
41593;BMP180;28026;48.562;14.440;2023-02-28T06:23:13;94194.00;;;2.50
41593;BMP180;28026;48.562;14.440;2023-02-28T06:25:47;94202.00;;;2.50
41593;BMP180;28026;48.562;14.440;2023-02-28T06:28:20;94197.00;;;2.50
41593;BMP180;28026;48.562;14.440;2023-02-28T06:30:51;94204.00;;;2.60
41593;BMP180;28026;48.562;14.440;2023-02-28T06:33:22;94204.00;;;2.60
41593;BMP180;28026;48.562;14.440;2023-02-28T06:35:53;94192.00;;;2.60
41593;BMP180;28026;48.562;14.440;2023-02-28T06:38:24;94205.00;;;2.70
41593;BMP180;28026;48.562;14.440;2023-02-28T06:40:57;94201.00;;;2.80
41593;BMP180;28026;48.562;14.440;2023-02-28T06:43:36;94207.00;;;2.80
41593;BMP180;28026;48.562;14.440;2023-02-28T06:46:13;94208.00;;;2.90
41593;BMP180;28026;48.562;14.440;2023-02-28T06:48:45;94212.00;;;3.00
41593;BMP180;28026;48.562;14.440;2023-02-28T06:51:20;94214.00;;;3.10
41593;BMP180;28026;48.562;14.440;2023-02-28T06:53:52;94210.00;;;3.20
41593;BMP180;28026;48.562;14.440;2023-02-28T06:56:23;94216.00;;;3.20
41593;BMP180;28026;48.562;14.440;2023-02-28T06:58:54;94209.00;;;3.40
41593;BMP180;28026;48.562;14.440;2023-02-28T07:01:26;94220.00;;;3.50
41593;BMP180;28026;48.562;14.440;2023-02-28T07:03:59;94221.00;;;3.60
41593;BMP180;28026;48.562;14.440;2023-02-28T07:06:31;94209.00;;;3.70
41593;BMP180;28026;48.562;14.440;2023-02-28T07:09:02;94212.00;;;3.80
41593;BMP180;28026;48.562;14.440;2023-02-28T07:11:34;94218.00;;;3.90
41593;BMP180;28026;48.562;14.440;2023-02-28T07:14:05;94211.00;;;4.00
41593;BMP180;28026;48.562;14.440;2023-02-28T07:16:36;94214.00;;;4.10
41593;BMP180;28026;48.562;14.440;2023-02-28T07:19:07;94210.00;;;4.20
41593;BMP180;28026;48.562;14.440;2023-02-28T07:21:38;94209.00;;;4.40
41593;BMP180;28026;48.562;14.440;2023-02-28T07:24:09;94215.00;;;4.50
41593;BMP180;28026;48.562;14.440;2023-02-28T07:26:41;94210.00;;;4.60
41593;BMP180;28026;48.562;14.440;2023-02-28T07:29:12;94216.00;;;4.70
41593;BMP180;28026;48.562;14.440;2023-02-28T07:31:43;94214.00;;;4.80
41593;BMP180;28026;48.562;14.440;2023-02-28T07:34:14;94216.00;;;4.90
41593;BMP180;28026;48.562;14.440;2023-02-28T07:36:45;94220.00;;;5.00
41593;BMP180;28026;48.562;14.440;2023-02-28T07:39:16;94216.00;;;5.10
41593;BMP180;28026;48.562;14.440;2023-02-28T07:41:46;94214.00;;;5.20
41593;BMP180;28026;48.562;14.440;2023-02-28T07:44:18;94216.00;;;5.40
41593;BMP180;28026;48.562;14.440;2023-02-28T07:46:48;94224.00;;;5.50
41593;BMP180;28026;48.562;14.440;2023-02-28T07:49:19;94219.00;;;5.60
41593;BMP180;28026;48.562;14.440;2023-02-28T07:51:50;94226.00;;;5.80
41593;BMP180;28026;48.562;14.440;2023-02-28T07:54:21;94226.00;;;6.00
41593;BMP180;28026;48.562;14.440;2023-02-28T07:56:52;94227.00;;;6.10
41593;BMP180;28026;48.562;14.440;2023-02-28T07:59:23;94224.00;;;6.30
41593;BMP180;28026;48.562;14.440;2023-02-28T08:01:53;94219.00;;;6.50
41593;BMP180;28026;48.562;14.440;2023-02-28T08:04:25;94220.00;;;6.60
41593;BMP180;28026;48.562;14.440;2023-02-28T08:06:56;94225.00;;;6.80
41593;BMP180;28026;48.562;14.440;2023-02-28T08:09:26;94219.00;;;7.00
41593;BMP180;28026;48.562;14.440;2023-02-28T08:11:57;94223.00;;;7.20
41593;BMP180;28026;48.562;14.440;2023-02-28T08:14:28;94234.00;;;7.30
41593;BMP180;28026;48.562;14.440;2023-02-28T08:17:00;94229.00;;;7.50
41593;BMP180;28026;48.562;14.440;2023-02-28T08:19:31;94229.00;;;7.60
41593;BMP180;28026;48.562;14.440;2023-02-28T08:22:02;94226.00;;;7.70
41593;BMP180;28026;48.562;14.440;2023-02-28T08:24:33;94235.00;;;7.80
41593;BMP180;28026;48.562;14.440;2023-02-28T08:27:04;94229.00;;;8.00
41593;BMP180;28026;48.562;14.440;2023-02-28T08:29:37;94233.00;;;8.10
41593;BMP180;28026;48.562;14.440;2023-02-28T08:32:09;94240.00;;;8.30
41593;BMP180;28026;48.562;14.440;2023-02-28T08:34:40;94249.00;;;8.40
41593;BMP180;28026;48.562;14.440;2023-02-28T08:37:11;94246.00;;;8.50
41593;BMP180;28026;48.562;14.440;2023-02-28T08:39:42;94245.00;;;8.60
41593;BMP180;28026;48.562;14.440;2023-02-28T08:42:12;94248.00;;;8.70
41593;BMP180;28026;48.562;14.440;2023-02-28T08:44:43;94242.00;;;8.70
41593;BMP180;28026;48.562;14.440;2023-02-28T08:47:14;94253.00;;;8.80
41593;BMP180;28026;48.562;14.440;2023-02-28T08:49:45;94257.00;;;8.90
41593;BMP180;28026;48.562;14.440;2023-02-28T08:52:16;94268.00;;;9.00
41593;BMP180;28026;48.562;14.440;2023-02-28T08:54:47;94265.00;;;9.10
41593;BMP180;28026;48.562;14.440;2023-02-28T08:57:18;94270.00;;;9.10
41593;BMP180;28026;48.562;14.440;2023-02-28T08:59:49;94254.00;;;9.20
41593;BMP180;28026;48.562;14.440;2023-02-28T09:02:20;94268.00;;;9.20
41593;BMP180;28026;48.562;14.440;2023-02-28T09:04:51;94267.00;;;9.30
41593;BMP180;28026;48.562;14.440;2023-02-28T09:07:21;94268.00;;;9.30
41593;BMP180;28026;48.562;14.440;2023-02-28T09:09:52;94269.00;;;9.40
41593;BMP180;28026;48.562;14.440;2023-02-28T09:12:33;94272.00;;;9.50
41593;BMP180;28026;48.562;14.440;2023-02-28T09:15:06;94269.00;;;9.40
41593;BMP180;28026;48.562;14.440;2023-02-28T09:17:37;94273.00;;;9.40
41593;BMP180;28026;48.562;14.440;2023-02-28T09:20:09;94278.00;;;9.50
41593;BMP180;28026;48.562;14.440;2023-02-28T09:22:41;94287.00;;;9.70
41593;BMP180;28026;48.562;14.440;2023-02-28T09:25:11;94287.00;;;9.80
41593;BMP180;28026;48.562;14.440;2023-02-28T09:27:42;94275.00;;;9.90
41593;BMP180;28026;48.562;14.440;2023-02-28T09:30:13;94282.00;;;10.00
41593;BMP180;28026;48.562;14.440;2023-02-28T09:32:45;94290.00;;;10.10
41593;BMP180;28026;48.562;14.440;2023-02-28T09:35:24;94292.00;;;10.20
41593;BMP180;28026;48.562;14.440;2023-02-28T09:37:57;94295.00;;;10.20
41593;BMP180;28026;48.562;14.440;2023-02-28T09:40:29;94289.00;;;10.30
41593;BMP180;28026;48.562;14.440;2023-02-28T09:43:01;94289.00;;;10.50
41593;BMP180;28026;48.562;14.440;2023-02-28T09:45:39;94295.00;;;10.60
41593;BMP180;28026;48.562;14.440;2023-02-28T09:48:23;94297.00;;;10.70
41593;BMP180;28026;48.562;14.440;2023-02-28T09:54:20;94295.00;;;10.90
41593;BMP180;28026;48.562;14.440;2023-02-28T10:03:25;94307.00;;;11.40
41593;BMP180;28026;48.562;14.440;2023-02-28T10:06:19;94315.00;;;11.40
41593;BMP180;28026;48.562;14.440;2023-02-28T10:09:03;94313.00;;;11.30
41593;BMP180;28026;48.562;14.440;2023-02-28T10:11:40;94320.00;;;11.40
41593;BMP180;28026;48.562;14.440;2023-02-28T10:14:21;94322.00;;;11.50
41593;BMP180;28026;48.562;14.440;2023-02-28T10:17:39;94321.00;;;11.70
41593;BMP180;28026;48.562;14.440;2023-02-28T10:20:21;94328.00;;;11.70
41593;BMP180;28026;48.562;14.440;2023-02-28T10:23:22;94321.00;;;11.80
41593;BMP180;28026;48.562;14.440;2023-02-28T10:26:13;94322.00;;;12.00
41593;BMP180;28026;48.562;14.440;2023-02-28T10:28:51;94320.00;;;12.10
41593;BMP180;28026;48.562;14.440;2023-02-28T10:31:23;94326.00;;;12.20
41593;BMP180;28026;48.562;14.440;2023-02-28T10:33:55;94325.00;;;12.30
41593;BMP180;28026;48.562;14.440;2023-02-28T10:36:26;94325.00;;;12.50
41593;BMP180;28026;48.562;14.440;2023-02-28T10:38:57;94322.00;;;12.50
41593;BMP180;28026;48.562;14.440;2023-02-28T10:41:32;94329.00;;;12.40
41593;BMP180;28026;48.562;14.440;2023-02-28T10:44:20;94318.00;;;12.40
41593;BMP180;28026;48.562;14.440;2023-02-28T10:46:53;94322.00;;;12.40
41593;BMP180;28026;48.562;14.440;2023-02-28T10:49:27;94330.00;;;12.50
41593;BMP180;28026;48.562;14.440;2023-02-28T10:52:00;94316.00;;;12.70
41593;BMP180;28026;48.562;14.440;2023-02-28T10:54:36;94323.00;;;12.60
41593;BMP180;28026;48.562;14.440;2023-02-28T10:57:23;94320.00;;;12.50
41593;BMP180;28026;48.562;14.440;2023-02-28T11:00:20;94309.00;;;12.30
41593;BMP180;28026;48.562;14.440;2023-02-28T11:02:52;94315.00;;;12.40
41593;BMP180;28026;48.562;14.440;2023-02-28T11:05:36;94304.00;;;12.50
41593;BMP180;28026;48.562;14.440;2023-02-28T11:08:17;94313.00;;;12.60
41593;BMP180;28026;48.562;14.440;2023-02-28T11:10:56;94308.00;;;12.90
41593;BMP180;28026;48.562;14.440;2023-02-28T11:13:36;94308.00;;;13.10
41593;BMP180;28026;48.562;14.440;2023-02-28T11:16:13;94308.00;;;13.10
41593;BMP180;28026;48.562;14.440;2023-02-28T11:18:55;94313.00;;;13.20
41593;BMP180;28026;48.562;14.440;2023-02-28T11:21:36;94302.00;;;13.40
41593;BMP180;28026;48.562;14.440;2023-02-28T11:27:05;94309.00;;;13.80
41593;BMP180;28026;48.562;14.440;2023-02-28T11:29:47;94294.00;;;13.90
41593;BMP180;28026;48.562;14.440;2023-02-28T11:32:27;94305.00;;;13.90
41593;BMP180;28026;48.562;14.440;2023-02-28T11:37:40;94291.00;;;13.90
41593;BMP180;28026;48.562;14.440;2023-02-28T11:40:30;94287.00;;;13.90
41593;BMP180;28026;48.562;14.440;2023-02-28T11:43:28;94296.00;;;13.90
41593;BMP180;28026;48.562;14.440;2023-02-28T11:49:32;94289.00;;;14.00
41593;BMP180;28026;48.562;14.440;2023-02-28T11:52:45;94291.00;;;14.10
41593;BMP180;28026;48.562;14.440;2023-02-28T11:55:35;94299.00;;;14.30
41593;BMP180;28026;48.562;14.440;2023-02-28T12:05:50;94299.00;;;13.40
41593;BMP180;28026;48.562;14.440;2023-02-28T12:12:29;94282.00;;;12.70
41593;BMP180;28026;48.562;14.440;2023-02-28T12:15:41;94278.00;;;12.40
41593;BMP180;28026;48.562;14.440;2023-02-28T12:19:03;94288.00;;;12.20
41593;BMP180;28026;48.562;14.440;2023-02-28T12:25:20;94287.00;;;12.00
41593;BMP180;28026;48.562;14.440;2023-02-28T12:28:14;94281.00;;;11.90
41593;BMP180;28026;48.562;14.440;2023-02-28T12:31:08;94277.00;;;11.80
41593;BMP180;28026;48.562;14.440;2023-02-28T12:33:53;94280.00;;;11.70
41593;BMP180;28026;48.562;14.440;2023-02-28T12:36:30;94279.00;;;11.60
41593;BMP180;28026;48.562;14.440;2023-02-28T12:39:15;94284.00;;;11.60
41593;BMP180;28026;48.562;14.440;2023-02-28T12:42:11;94273.00;;;11.60
41593;BMP180;28026;48.562;14.440;2023-02-28T12:45:22;94280.00;;;11.60
41593;BMP180;28026;48.562;14.440;2023-02-28T12:48:03;94274.00;;;11.70
41593;BMP180;28026;48.562;14.440;2023-02-28T12:50:38;94282.00;;;11.70
41593;BMP180;28026;48.562;14.440;2023-02-28T12:53:26;94276.00;;;11.70
41593;BMP180;28026;48.562;14.440;2023-02-28T13:00:01;94275.00;;;11.40
41593;BMP180;28026;48.562;14.440;2023-02-28T13:03:06;94271.00;;;11.30
41593;BMP180;28026;48.562;14.440;2023-02-28T13:09:15;94271.00;;;11.00
41593;BMP180;28026;48.562;14.440;2023-02-28T13:11:50;94277.00;;;10.90
41593;BMP180;28026;48.562;14.440;2023-02-28T13:22:36;94285.00;;;10.50
41593;BMP180;28026;48.562;14.440;2023-02-28T13:27:54;94287.00;;;10.50
41593;BMP180;28026;48.562;14.440;2023-02-28T13:36:33;94287.00;;;10.30
41593;BMP180;28026;48.562;14.440;2023-02-28T13:47:45;94282.00;;;10.10
41593;BMP180;28026;48.562;14.440;2023-02-28T14:05:22;94287.00;;;9.90
41593;BMP180;28026;48.562;14.440;2023-02-28T14:08:00;94288.00;;;9.90
41593;BMP180;28026;48.562;14.440;2023-02-28T14:10:48;94282.00;;;10.00
41593;BMP180;28026;48.562;14.440;2023-02-28T14:13:40;94285.00;;;10.00
41593;BMP180;28026;48.562;14.440;2023-02-28T14:16:23;94284.00;;;10.00
41593;BMP180;28026;48.562;14.440;2023-02-28T14:19:00;94274.00;;;10.00
41593;BMP180;28026;48.562;14.440;2023-02-28T14:31:06;94292.00;;;9.90
41593;BMP180;28026;48.562;14.440;2023-02-28T14:34:04;94290.00;;;9.80
41593;BMP180;28026;48.562;14.440;2023-02-28T14:36:48;94282.00;;;9.80
41593;BMP180;28026;48.562;14.440;2023-02-28T14:39:25;94283.00;;;9.80
41593;BMP180;28026;48.562;14.440;2023-02-28T14:41:58;94288.00;;;9.80
41593;BMP180;28026;48.562;14.440;2023-02-28T14:44:36;94290.00;;;9.80
41593;BMP180;28026;48.562;14.440;2023-02-28T14:47:15;94290.00;;;9.70
41593;BMP180;28026;48.562;14.440;2023-02-28T14:49:47;94288.00;;;9.60
41593;BMP180;28026;48.562;14.440;2023-02-28T14:52:28;94292.00;;;9.60
41593;BMP180;28026;48.562;14.440;2023-02-28T14:55:09;94290.00;;;9.60
41593;BMP180;28026;48.562;14.440;2023-02-28T14:57:55;94291.00;;;9.60
41593;BMP180;28026;48.562;14.440;2023-02-28T15:00:34;94281.00;;;9.60
41593;BMP180;28026;48.562;14.440;2023-02-28T15:03:31;94299.00;;;9.50
41593;BMP180;28026;48.562;14.440;2023-02-28T15:06:06;94295.00;;;9.50
41593;BMP180;28026;48.562;14.440;2023-02-28T15:08:45;94295.00;;;9.50
41593;BMP180;28026;48.562;14.440;2023-02-28T15:11:19;94301.00;;;9.50
41593;BMP180;28026;48.562;14.440;2023-02-28T15:13:54;94304.00;;;9.50
41593;BMP180;28026;48.562;14.440;2023-02-28T15:16:40;94296.00;;;9.40
41593;BMP180;28026;48.562;14.440;2023-02-28T15:19:32;94294.00;;;9.40
41593;BMP180;28026;48.562;14.440;2023-02-28T15:22:13;94298.00;;;9.40
41593;BMP180;28026;48.562;14.440;2023-02-28T15:24:52;94298.00;;;9.30
41593;BMP180;28026;48.562;14.440;2023-02-28T15:27:30;94297.00;;;9.30
41593;BMP180;28026;48.562;14.440;2023-02-28T15:30:12;94300.00;;;9.20
41593;BMP180;28026;48.562;14.440;2023-02-28T15:33:04;94301.00;;;9.10
41593;BMP180;28026;48.562;14.440;2023-02-28T15:35:42;94298.00;;;9.00
41593;BMP180;28026;48.562;14.440;2023-02-28T15:38:27;94297.00;;;9.10
41593;BMP180;28026;48.562;14.440;2023-02-28T15:40:59;94295.00;;;9.00
41593;BMP180;28026;48.562;14.440;2023-02-28T15:43:35;94300.00;;;8.90
41593;BMP180;28026;48.562;14.440;2023-02-28T15:46:13;94304.00;;;8.90
41593;BMP180;28026;48.562;14.440;2023-02-28T15:48:55;94309.00;;;8.90
41593;BMP180;28026;48.562;14.440;2023-02-28T15:51:36;94303.00;;;8.80
41593;BMP180;28026;48.562;14.440;2023-02-28T15:54:20;94302.00;;;8.80
41593;BMP180;28026;48.562;14.440;2023-02-28T15:57:05;94310.00;;;8.80
41593;BMP180;28026;48.562;14.440;2023-02-28T15:59:38;94303.00;;;8.80
41593;BMP180;28026;48.562;14.440;2023-02-28T16:07:42;94304.00;;;8.80
41593;BMP180;28026;48.562;14.440;2023-02-28T16:10:14;94302.00;;;8.80
41593;BMP180;28026;48.562;14.440;2023-02-28T16:12:45;94300.00;;;8.70
41593;BMP180;28026;48.562;14.440;2023-02-28T16:15:28;94305.00;;;8.70
41593;BMP180;28026;48.562;14.440;2023-02-28T16:18:01;94304.00;;;8.80
41593;BMP180;28026;48.562;14.440;2023-02-28T16:20:32;94305.00;;;8.80
41593;BMP180;28026;48.562;14.440;2023-02-28T16:23:02;94300.00;;;8.80
41593;BMP180;28026;48.562;14.440;2023-02-28T16:25:40;94304.00;;;8.80
41593;BMP180;28026;48.562;14.440;2023-02-28T16:28:21;94306.00;;;8.80
41593;BMP180;28026;48.562;14.440;2023-02-28T16:30:53;94300.00;;;8.80
41593;BMP180;28026;48.562;14.440;2023-02-28T16:33:24;94307.00;;;8.70
41593;BMP180;28026;48.562;14.440;2023-02-28T16:35:55;94304.00;;;8.70
41593;BMP180;28026;48.562;14.440;2023-02-28T16:38:26;94306.00;;;8.70
41593;BMP180;28026;48.562;14.440;2023-02-28T16:40:59;94312.00;;;8.70
41593;BMP180;28026;48.562;14.440;2023-02-28T16:43:31;94313.00;;;8.70
41593;BMP180;28026;48.562;14.440;2023-02-28T16:46:02;94306.00;;;8.60
41593;BMP180;28026;48.562;14.440;2023-02-28T16:48:34;94309.00;;;8.60
41593;BMP180;28026;48.562;14.440;2023-02-28T16:51:05;94312.00;;;8.60
41593;BMP180;28026;48.562;14.440;2023-02-28T16:53:36;94314.00;;;8.50
41593;BMP180;28026;48.562;14.440;2023-02-28T16:56:16;94324.00;;;8.50
41593;BMP180;28026;48.562;14.440;2023-02-28T16:58:51;94323.00;;;8.40
41593;BMP180;28026;48.562;14.440;2023-02-28T17:01:24;94326.00;;;8.40
41593;BMP180;28026;48.562;14.440;2023-02-28T17:03:57;94322.00;;;8.40
41593;BMP180;28026;48.562;14.440;2023-02-28T17:06:29;94334.00;;;8.40
41593;BMP180;28026;48.562;14.440;2023-02-28T17:09:00;94332.00;;;8.30
41593;BMP180;28026;48.562;14.440;2023-02-28T17:11:31;94333.00;;;8.30
41593;BMP180;28026;48.562;14.440;2023-02-28T17:14:03;94339.00;;;8.30